<?xml version="1.0" encoding="UTF-8" standalone="no" ?>
<gpx xmlns="http://www.topografix.com/GPX/1/1" xmlns:xsi="http://www.w3.org/2001/XMLSchema-instance" xsi:schemaLocation="http://www.topografix.com/GPX/1/1 http://www.topografix.com/GPX/1/1/gpx.xsd" version="1.1" creator="VisuGPX - https://www.visugpx.com">
  <metadata>
    <name>GR5-GTA Longon-Valdeblore21-AOU-19 16:28:48</name>
    <desc><![CDATA[Rano sur GR5-GTA Etape Refuge de Longon-Valdeblore]]></desc>
  </metadata>
  <trk>
    <name><![CDATA[21-AOU-19 16:28:48]]></name>
    <trkseg>
      <trkpt lat="44.13922" lon="7.04668">
        <ele>1888.17</ele>
        <time>2019-08-21T05:32:05Z</time>
      </trkpt>
      <trkpt lat="44.13905" lon="7.04768">
        <ele>1891.53</ele>
        <time>2019-08-21T05:38:43Z</time>
      </trkpt>
      <trkpt lat="44.13896" lon="7.04881">
        <ele>1888.17</ele>
        <time>2019-08-21T05:40:14Z</time>
      </trkpt>
      <trkpt lat="44.13876" lon="7.04994">
        <ele>1881.92</ele>
        <time>2019-08-21T05:41:36Z</time>
      </trkpt>
      <trkpt lat="44.13847" lon="7.05108">
        <ele>1879.03</ele>
        <time>2019-08-21T05:42:56Z</time>
      </trkpt>
      <trkpt lat="44.13831" lon="7.05217">
        <ele>1872.79</ele>
        <time>2019-08-21T05:44:23Z</time>
      </trkpt>
      <trkpt lat="44.13805" lon="7.05313">
        <ele>1859.81</ele>
        <time>2019-08-21T05:46:10Z</time>
      </trkpt>
      <trkpt lat="44.1378" lon="7.05363">
        <ele>1832.41</ele>
        <time>2019-08-21T05:49:41Z</time>
      </trkpt>
      <trkpt lat="44.13788" lon="7.0543">
        <ele>1808.38</ele>
        <time>2019-08-21T05:52:07Z</time>
      </trkpt>
      <trkpt lat="44.13731" lon="7.05414">
        <ele>1788.19</ele>
        <time>2019-08-21T05:54:52Z</time>
      </trkpt>
      <trkpt lat="44.13683" lon="7.05474">
        <ele>1765.6</ele>
        <time>2019-08-21T05:57:15Z</time>
      </trkpt>
      <trkpt lat="44.13624" lon="7.05543">
        <ele>1745.89</ele>
        <time>2019-08-21T05:59:24Z</time>
      </trkpt>
      <trkpt lat="44.13548" lon="7.0555">
        <ele>1725.7</ele>
        <time>2019-08-21T06:01:44Z</time>
      </trkpt>
      <trkpt lat="44.13471" lon="7.05589">
        <ele>1704.55</ele>
        <time>2019-08-21T06:04:07Z</time>
      </trkpt>
      <trkpt lat="44.13408" lon="7.05633">
        <ele>1686.29</ele>
        <time>2019-08-21T06:06:13Z</time>
      </trkpt>
      <trkpt lat="44.13348" lon="7.05701">
        <ele>1665.62</ele>
        <time>2019-08-21T06:08:21Z</time>
      </trkpt>
      <trkpt lat="44.13294" lon="7.05772">
        <ele>1646.4</ele>
        <time>2019-08-21T06:10:24Z</time>
      </trkpt>
      <trkpt lat="44.13235" lon="7.05849">
        <ele>1632.94</ele>
        <time>2019-08-21T06:12:19Z</time>
      </trkpt>
      <trkpt lat="44.13178" lon="7.05935">
        <ele>1621.88</ele>
        <time>2019-08-21T06:14:11Z</time>
      </trkpt>
      <trkpt lat="44.13105" lon="7.0598">
        <ele>1601.21</ele>
        <time>2019-08-21T06:17:15Z</time>
      </trkpt>
      <trkpt lat="44.13029" lon="7.06029">
        <ele>1587.75</ele>
        <time>2019-08-21T06:19:32Z</time>
      </trkpt>
      <trkpt lat="44.12959" lon="7.06096">
        <ele>1571.41</ele>
        <time>2019-08-21T06:21:38Z</time>
      </trkpt>
      <trkpt lat="44.12878" lon="7.06121">
        <ele>1555.07</ele>
        <time>2019-08-21T06:26:33Z</time>
      </trkpt>
      <trkpt lat="44.12809" lon="7.06178">
        <ele>1531.52</ele>
        <time>2019-08-21T06:29:31Z</time>
      </trkpt>
      <trkpt lat="44.12722" lon="7.06222">
        <ele>1517.58</ele>
        <time>2019-08-21T06:31:16Z</time>
      </trkpt>
      <trkpt lat="44.12644" lon="7.06274">
        <ele>1508.45</ele>
        <time>2019-08-21T06:33:08Z</time>
      </trkpt>
      <trkpt lat="44.12637" lon="7.06158">
        <ele>1497.87</ele>
        <time>2019-08-21T06:35:12Z</time>
      </trkpt>
      <trkpt lat="44.12647" lon="7.06039">
        <ele>1494.03</ele>
        <time>2019-08-21T06:37:04Z</time>
      </trkpt>
      <trkpt lat="44.12672" lon="7.05936">
        <ele>1479.13</ele>
        <time>2019-08-21T06:39:08Z</time>
      </trkpt>
      <trkpt lat="44.12598" lon="7.05964">
        <ele>1469.51</ele>
        <time>2019-08-21T06:41:33Z</time>
      </trkpt>
      <trkpt lat="44.12529" lon="7.06034">
        <ele>1459.9</ele>
        <time>2019-08-21T06:43:30Z</time>
      </trkpt>
      <trkpt lat="44.12465" lon="7.0605">
        <ele>1462.78</ele>
        <time>2019-08-21T06:45:30Z</time>
      </trkpt>
      <trkpt lat="44.12406" lon="7.06138">
        <ele>1465.67</ele>
        <time>2019-08-21T06:47:34Z</time>
      </trkpt>
      <trkpt lat="44.12322" lon="7.06183">
        <ele>1464.23</ele>
        <time>2019-08-21T06:49:35Z</time>
      </trkpt>
      <trkpt lat="44.12236" lon="7.06218">
        <ele>1471.92</ele>
        <time>2019-08-21T06:51:15Z</time>
      </trkpt>
      <trkpt lat="44.12159" lon="7.06271">
        <ele>1474.8</ele>
        <time>2019-08-21T06:53:02Z</time>
      </trkpt>
      <trkpt lat="44.12085" lon="7.06286">
        <ele>1476.72</ele>
        <time>2019-08-21T06:54:54Z</time>
      </trkpt>
      <trkpt lat="44.12001" lon="7.06278">
        <ele>1471.92</ele>
        <time>2019-08-21T06:56:32Z</time>
      </trkpt>
      <trkpt lat="44.11918" lon="7.06292">
        <ele>1468.07</ele>
        <time>2019-08-21T06:57:52Z</time>
      </trkpt>
      <trkpt lat="44.1184" lon="7.06324">
        <ele>1464.71</ele>
        <time>2019-08-21T06:59:33Z</time>
      </trkpt>
      <trkpt lat="44.11771" lon="7.0637">
        <ele>1455.09</ele>
        <time>2019-08-21T07:01:11Z</time>
      </trkpt>
      <trkpt lat="44.11731" lon="7.06313">
        <ele>1465.19</ele>
        <time>2019-08-21T07:03:27Z</time>
      </trkpt>
      <trkpt lat="44.11701" lon="7.06343">
        <ele>1472.4</ele>
        <time>2019-08-21T07:06:17Z</time>
      </trkpt>
      <trkpt lat="44.11643" lon="7.06441">
        <ele>1467.59</ele>
        <time>2019-08-21T07:07:41Z</time>
      </trkpt>
      <trkpt lat="44.11596" lon="7.06539">
        <ele>1466.15</ele>
        <time>2019-08-21T07:09:01Z</time>
      </trkpt>
      <trkpt lat="44.11571" lon="7.06661">
        <ele>1465.19</ele>
        <time>2019-08-21T07:10:27Z</time>
      </trkpt>
      <trkpt lat="44.1153" lon="7.06772">
        <ele>1462.78</ele>
        <time>2019-08-21T07:11:50Z</time>
      </trkpt>
      <trkpt lat="44.11549" lon="7.06888">
        <ele>1463.26</ele>
        <time>2019-08-21T07:13:15Z</time>
      </trkpt>
      <trkpt lat="44.11513" lon="7.06998">
        <ele>1462.3</ele>
        <time>2019-08-21T07:14:37Z</time>
      </trkpt>
      <trkpt lat="44.11435" lon="7.07066">
        <ele>1460.86</ele>
        <time>2019-08-21T07:16:05Z</time>
      </trkpt>
      <trkpt lat="44.1143" lon="7.07167">
        <ele>1460.38</ele>
        <time>2019-08-21T07:17:29Z</time>
      </trkpt>
      <trkpt lat="44.11374" lon="7.07257">
        <ele>1461.34</ele>
        <time>2019-08-21T07:18:51Z</time>
      </trkpt>
      <trkpt lat="44.11293" lon="7.07245">
        <ele>1463.74</ele>
        <time>2019-08-21T07:20:18Z</time>
      </trkpt>
      <trkpt lat="44.11237" lon="7.07339">
        <ele>1465.67</ele>
        <time>2019-08-21T07:21:47Z</time>
      </trkpt>
      <trkpt lat="44.11166" lon="7.07414">
        <ele>1468.07</ele>
        <time>2019-08-21T07:23:15Z</time>
      </trkpt>
      <trkpt lat="44.11101" lon="7.07405">
        <ele>1463.74</ele>
        <time>2019-08-21T07:25:08Z</time>
      </trkpt>
      <trkpt lat="44.11007" lon="7.074">
        <ele>1456.53</ele>
        <time>2019-08-21T07:26:41Z</time>
      </trkpt>
      <trkpt lat="44.10939" lon="7.07477">
        <ele>1449.81</ele>
        <time>2019-08-21T07:28:11Z</time>
      </trkpt>
      <trkpt lat="44.1088" lon="7.07565">
        <ele>1445.96</ele>
        <time>2019-08-21T07:29:31Z</time>
      </trkpt>
      <trkpt lat="44.10815" lon="7.07647">
        <ele>1444.52</ele>
        <time>2019-08-21T07:30:54Z</time>
      </trkpt>
      <trkpt lat="44.10752" lon="7.07734">
        <ele>1443.56</ele>
        <time>2019-08-21T07:32:19Z</time>
      </trkpt>
      <trkpt lat="44.1073" lon="7.07851">
        <ele>1445.96</ele>
        <time>2019-08-21T07:33:46Z</time>
      </trkpt>
      <trkpt lat="44.10683" lon="7.07957">
        <ele>1447.4</ele>
        <time>2019-08-21T07:35:14Z</time>
      </trkpt>
      <trkpt lat="44.10636" lon="7.08067">
        <ele>1444.04</ele>
        <time>2019-08-21T07:36:41Z</time>
      </trkpt>
      <trkpt lat="44.10585" lon="7.08173">
        <ele>1438.75</ele>
        <time>2019-08-21T07:38:13Z</time>
      </trkpt>
      <trkpt lat="44.10539" lon="7.08284">
        <ele>1429.62</ele>
        <time>2019-08-21T07:39:52Z</time>
      </trkpt>
      <trkpt lat="44.10475" lon="7.08369">
        <ele>1420.97</ele>
        <time>2019-08-21T07:41:25Z</time>
      </trkpt>
      <trkpt lat="44.10429" lon="7.08469">
        <ele>1412.79</ele>
        <time>2019-08-21T07:43:05Z</time>
      </trkpt>
      <trkpt lat="44.10366" lon="7.0855">
        <ele>1404.14</ele>
        <time>2019-08-21T07:44:34Z</time>
      </trkpt>
      <trkpt lat="44.10282" lon="7.08605">
        <ele>1395.97</ele>
        <time>2019-08-21T07:46:05Z</time>
      </trkpt>
      <trkpt lat="44.10226" lon="7.0869">
        <ele>1386.84</ele>
        <time>2019-08-21T07:47:37Z</time>
      </trkpt>
      <trkpt lat="44.10172" lon="7.08791">
        <ele>1380.59</ele>
        <time>2019-08-21T07:50:07Z</time>
      </trkpt>
      <trkpt lat="44.1011" lon="7.08816">
        <ele>1367.13</ele>
        <time>2019-08-21T07:53:20Z</time>
      </trkpt>
      <trkpt lat="44.1002" lon="7.08844">
        <ele>1356.08</ele>
        <time>2019-08-21T07:55:39Z</time>
      </trkpt>
      <trkpt lat="44.09936" lon="7.08871">
        <ele>1343.1</ele>
        <time>2019-08-21T07:57:46Z</time>
      </trkpt>
      <trkpt lat="44.09853" lon="7.08884">
        <ele>1329.16</ele>
        <time>2019-08-21T07:59:59Z</time>
      </trkpt>
      <trkpt lat="44.09772" lon="7.08912">
        <ele>1315.22</ele>
        <time>2019-08-21T08:02:14Z</time>
      </trkpt>
      <trkpt lat="44.09702" lon="7.08978">
        <ele>1301.28</ele>
        <time>2019-08-21T08:04:12Z</time>
      </trkpt>
      <trkpt lat="44.09621" lon="7.09025">
        <ele>1288.3</ele>
        <time>2019-08-21T08:05:59Z</time>
      </trkpt>
      <trkpt lat="44.09567" lon="7.09033">
        <ele>1279.17</ele>
        <time>2019-08-21T08:07:56Z</time>
      </trkpt>
      <trkpt lat="44.09492" lon="7.08996">
        <ele>1264.75</ele>
        <time>2019-08-21T08:10:12Z</time>
      </trkpt>
      <trkpt lat="44.0942" lon="7.08929">
        <ele>1247.93</ele>
        <time>2019-08-21T08:12:21Z</time>
      </trkpt>
      <trkpt lat="44.09343" lon="7.0887">
        <ele>1226.3</ele>
        <time>2019-08-21T08:14:28Z</time>
      </trkpt>
      <trkpt lat="44.09256" lon="7.08834">
        <ele>1216.21</ele>
        <time>2019-08-21T08:16:09Z</time>
      </trkpt>
      <trkpt lat="44.09195" lon="7.08746">
        <ele>1195.06</ele>
        <time>2019-08-21T08:18:12Z</time>
      </trkpt>
      <trkpt lat="44.09153" lon="7.08641">
        <ele>1180.16</ele>
        <time>2019-08-21T08:20:25Z</time>
      </trkpt>
      <trkpt lat="44.0915" lon="7.0856">
        <ele>1166.22</ele>
        <time>2019-08-21T08:22:39Z</time>
      </trkpt>
      <trkpt lat="44.0907" lon="7.08562">
        <ele>1155.64</ele>
        <time>2019-08-21T08:24:10Z</time>
      </trkpt>
      <trkpt lat="44.0899" lon="7.08585">
        <ele>1142.18</ele>
        <time>2019-08-21T08:26:37Z</time>
      </trkpt>
      <trkpt lat="44.08959" lon="7.08672">
        <ele>1125.36</ele>
        <time>2019-08-21T08:28:24Z</time>
      </trkpt>
      <trkpt lat="44.08961" lon="7.08755">
        <ele>1103.25</ele>
        <time>2019-08-21T08:31:17Z</time>
      </trkpt>
      <trkpt lat="44.08944" lon="7.08826">
        <ele>1103.73</ele>
        <time>2019-08-21T08:34:33Z</time>
      </trkpt>
      <trkpt lat="44.08925" lon="7.08837">
        <ele>1109.02</ele>
        <time>2019-08-21T08:40:00Z</time>
      </trkpt>
      <trkpt lat="44.08965" lon="7.08788">
        <ele>1092.2</ele>
        <time>2019-08-21T08:41:52Z</time>
      </trkpt>
      <trkpt lat="44.09014" lon="7.08821">
        <ele>1079.22</ele>
        <time>2019-08-21T08:44:16Z</time>
      </trkpt>
      <trkpt lat="44.09009" lon="7.08933">
        <ele>1063.36</ele>
        <time>2019-08-21T08:46:24Z</time>
      </trkpt>
      <trkpt lat="44.09007" lon="7.09038">
        <ele>1053.26</ele>
        <time>2019-08-21T08:48:53Z</time>
      </trkpt>
      <trkpt lat="44.09005" lon="7.09036">
        <ele>1052.3</ele>
        <time>2019-08-21T08:54:16Z</time>
      </trkpt>
      <trkpt lat="44.09005" lon="7.09036">
        <ele>1052.3</ele>
        <time>2019-08-21T08:54:17Z</time>
      </trkpt>
      <trkpt lat="44.09013" lon="7.0902">
        <ele>1051.82</ele>
        <time>2019-08-21T08:55:21Z</time>
      </trkpt>
      <trkpt lat="44.09035" lon="7.09095">
        <ele>1043.17</ele>
        <time>2019-08-21T08:59:31Z</time>
      </trkpt>
      <trkpt lat="44.09059" lon="7.09209">
        <ele>1032.59</ele>
        <time>2019-08-21T09:01:05Z</time>
      </trkpt>
      <trkpt lat="44.09061" lon="7.09328">
        <ele>1020.58</ele>
        <time>2019-08-21T09:02:40Z</time>
      </trkpt>
      <trkpt lat="44.09053" lon="7.09444">
        <ele>1008.56</ele>
        <time>2019-08-21T09:04:09Z</time>
      </trkpt>
      <trkpt lat="44.09092" lon="7.09551">
        <ele>994.62</ele>
        <time>2019-08-21T09:05:46Z</time>
      </trkpt>
      <trkpt lat="44.09032" lon="7.09544">
        <ele>986.93</ele>
        <time>2019-08-21T09:07:07Z</time>
      </trkpt>
      <trkpt lat="44.08983" lon="7.09444">
        <ele>979.24</ele>
        <time>2019-08-21T09:08:29Z</time>
      </trkpt>
      <trkpt lat="44.08984" lon="7.09542">
        <ele>962.42</ele>
        <time>2019-08-21T09:10:26Z</time>
      </trkpt>
      <trkpt lat="44.09046" lon="7.09631">
        <ele>948.96</ele>
        <time>2019-08-21T09:12:21Z</time>
      </trkpt>
      <trkpt lat="44.08963" lon="7.0962">
        <ele>935.5</ele>
        <time>2019-08-21T09:14:02Z</time>
      </trkpt>
      <trkpt lat="44.08914" lon="7.09543">
        <ele>922.52</ele>
        <time>2019-08-21T09:15:49Z</time>
      </trkpt>
      <trkpt lat="44.08913" lon="7.09425">
        <ele>910.99</ele>
        <time>2019-08-21T09:17:26Z</time>
      </trkpt>
      <trkpt lat="44.0888" lon="7.09477">
        <ele>898.49</ele>
        <time>2019-08-21T09:19:09Z</time>
      </trkpt>
      <trkpt lat="44.08832" lon="7.09573">
        <ele>884.55</ele>
        <time>2019-08-21T09:20:50Z</time>
      </trkpt>
      <trkpt lat="44.08877" lon="7.09675">
        <ele>873.5</ele>
        <time>2019-08-21T09:22:50Z</time>
      </trkpt>
      <trkpt lat="44.08794" lon="7.09634">
        <ele>860.04</ele>
        <time>2019-08-21T09:24:32Z</time>
      </trkpt>
      <trkpt lat="44.08792" lon="7.09517">
        <ele>847.54</ele>
        <time>2019-08-21T09:26:10Z</time>
      </trkpt>
      <trkpt lat="44.08824" lon="7.09413">
        <ele>835.52</ele>
        <time>2019-08-21T09:28:04Z</time>
      </trkpt>
      <trkpt lat="44.08807" lon="7.09436">
        <ele>822.55</ele>
        <time>2019-08-21T09:29:40Z</time>
      </trkpt>
      <trkpt lat="44.08744" lon="7.09521">
        <ele>810.05</ele>
        <time>2019-08-21T09:31:23Z</time>
      </trkpt>
      <trkpt lat="44.0868" lon="7.09607">
        <ele>798.03</ele>
        <time>2019-08-21T09:33:03Z</time>
      </trkpt>
      <trkpt lat="44.08624" lon="7.09694">
        <ele>785.53</ele>
        <time>2019-08-21T09:34:44Z</time>
      </trkpt>
      <trkpt lat="44.08661" lon="7.09796">
        <ele>772.56</ele>
        <time>2019-08-21T09:36:45Z</time>
      </trkpt>
      <trkpt lat="44.08656" lon="7.0986">
        <ele>754.29</ele>
        <time>2019-08-21T09:38:49Z</time>
      </trkpt>
      <trkpt lat="44.08683" lon="7.09912">
        <ele>731.7</ele>
        <time>2019-08-21T09:41:26Z</time>
      </trkpt>
      <trkpt lat="44.08695" lon="7.10012">
        <ele>704.78</ele>
        <time>2019-08-21T09:44:08Z</time>
      </trkpt>
      <trkpt lat="44.08691" lon="7.10105">
        <ele>682.67</ele>
        <time>2019-08-21T09:46:58Z</time>
      </trkpt>
      <trkpt lat="44.087" lon="7.10174">
        <ele>656.72</ele>
        <time>2019-08-21T09:49:54Z</time>
      </trkpt>
      <trkpt lat="44.08669" lon="7.10227">
        <ele>632.68</ele>
        <time>2019-08-21T09:52:23Z</time>
      </trkpt>
      <trkpt lat="44.08662" lon="7.10291">
        <ele>606.25</ele>
        <time>2019-08-21T09:55:08Z</time>
      </trkpt>
      <trkpt lat="44.08593" lon="7.10262">
        <ele>588.46</ele>
        <time>2019-08-21T09:57:20Z</time>
      </trkpt>
      <trkpt lat="44.08574" lon="7.10312">
        <ele>562.03</ele>
        <time>2019-08-21T09:59:59Z</time>
      </trkpt>
      <trkpt lat="44.08554" lon="7.10343">
        <ele>541.36</ele>
        <time>2019-08-21T10:02:12Z</time>
      </trkpt>
      <trkpt lat="44.08565" lon="7.10454">
        <ele>521.17</ele>
        <time>2019-08-21T10:04:30Z</time>
      </trkpt>
      <trkpt lat="44.085" lon="7.10484">
        <ele>510.6</ele>
        <time>2019-08-21T10:06:29Z</time>
      </trkpt>
      <trkpt lat="44.08433" lon="7.10548">
        <ele>509.16</ele>
        <time>2019-08-21T10:08:01Z</time>
      </trkpt>
      <trkpt lat="44.08372" lon="7.10499">
        <ele>513</ele>
        <time>2019-08-21T10:09:42Z</time>
      </trkpt>
      <trkpt lat="44.08286" lon="7.10563">
        <ele>510.6</ele>
        <time>2019-08-21T10:11:34Z</time>
      </trkpt>
      <trkpt lat="44.08238" lon="7.10609">
        <ele>512.52</ele>
        <time>2019-08-21T10:22:22Z</time>
      </trkpt>
      <trkpt lat="44.08303" lon="7.10561">
        <ele>513.96</ele>
        <time>2019-08-21T10:28:56Z</time>
      </trkpt>
      <trkpt lat="44.08233" lon="7.10614">
        <ele>512.52</ele>
        <time>2019-08-21T10:30:24Z</time>
      </trkpt>
      <trkpt lat="44.08187" lon="7.10643">
        <ele>512.04</ele>
        <time>2019-08-21T10:37:22Z</time>
      </trkpt>
      <trkpt lat="44.08151" lon="7.10684">
        <ele>520.21</ele>
        <time>2019-08-21T10:52:07Z</time>
      </trkpt>
      <trkpt lat="44.08089" lon="7.10714">
        <ele>531.75</ele>
        <time>2019-08-21T10:54:04Z</time>
      </trkpt>
      <trkpt lat="44.08044" lon="7.10765">
        <ele>550.97</ele>
        <time>2019-08-21T10:57:57Z</time>
      </trkpt>
      <trkpt lat="44.08018" lon="7.10733">
        <ele>570.2</ele>
        <time>2019-08-21T11:01:19Z</time>
      </trkpt>
      <trkpt lat="44.0798" lon="7.1074">
        <ele>590.87</ele>
        <time>2019-08-21T11:04:54Z</time>
      </trkpt>
      <trkpt lat="44.07944" lon="7.1081">
        <ele>610.57</ele>
        <time>2019-08-21T11:08:35Z</time>
      </trkpt>
      <trkpt lat="44.07879" lon="7.1086">
        <ele>625.47</ele>
        <time>2019-08-21T11:11:23Z</time>
      </trkpt>
      <trkpt lat="44.07814" lon="7.10929">
        <ele>633.17</ele>
        <time>2019-08-21T11:13:28Z</time>
      </trkpt>
      <trkpt lat="44.07727" lon="7.10969">
        <ele>645.18</ele>
        <time>2019-08-21T11:15:44Z</time>
      </trkpt>
      <trkpt lat="44.07647" lon="7.1103">
        <ele>657.2</ele>
        <time>2019-08-21T11:18:31Z</time>
      </trkpt>
      <trkpt lat="44.07632" lon="7.11143">
        <ele>670.18</ele>
        <time>2019-08-21T11:20:44Z</time>
      </trkpt>
      <trkpt lat="44.0757" lon="7.11227">
        <ele>683.63</ele>
        <time>2019-08-21T11:24:45Z</time>
      </trkpt>
      <trkpt lat="44.07557" lon="7.11344">
        <ele>696.13</ele>
        <time>2019-08-21T11:27:23Z</time>
      </trkpt>
      <trkpt lat="44.07609" lon="7.11279">
        <ele>709.59</ele>
        <time>2019-08-21T11:30:20Z</time>
      </trkpt>
      <trkpt lat="44.07666" lon="7.11267">
        <ele>721.61</ele>
        <time>2019-08-21T11:33:05Z</time>
      </trkpt>
      <trkpt lat="44.07634" lon="7.11382">
        <ele>737.47</ele>
        <time>2019-08-21T11:36:03Z</time>
      </trkpt>
      <trkpt lat="44.07578" lon="7.1148">
        <ele>750.93</ele>
        <time>2019-08-21T11:41:32Z</time>
      </trkpt>
      <trkpt lat="44.07563" lon="7.11606">
        <ele>762.94</ele>
        <time>2019-08-21T11:44:14Z</time>
      </trkpt>
      <trkpt lat="44.07549" lon="7.11742">
        <ele>777.36</ele>
        <time>2019-08-21T11:48:24Z</time>
      </trkpt>
      <trkpt lat="44.07521" lon="7.11863">
        <ele>786.02</ele>
        <time>2019-08-21T11:51:00Z</time>
      </trkpt>
      <trkpt lat="44.07485" lon="7.11957">
        <ele>796.59</ele>
        <time>2019-08-21T11:53:14Z</time>
      </trkpt>
      <trkpt lat="44.07429" lon="7.1199">
        <ele>806.68</ele>
        <time>2019-08-21T11:55:48Z</time>
      </trkpt>
      <trkpt lat="44.07359" lon="7.11897">
        <ele>817.26</ele>
        <time>2019-08-21T11:58:11Z</time>
      </trkpt>
      <trkpt lat="44.0729" lon="7.11798">
        <ele>825.43</ele>
        <time>2019-08-21T12:00:15Z</time>
      </trkpt>
      <trkpt lat="44.07185" lon="7.11748">
        <ele>835.52</ele>
        <time>2019-08-21T12:02:36Z</time>
      </trkpt>
      <trkpt lat="44.07131" lon="7.11823">
        <ele>842.73</ele>
        <time>2019-08-21T12:05:38Z</time>
      </trkpt>
      <trkpt lat="44.07093" lon="7.1193">
        <ele>850.9</ele>
        <time>2019-08-21T12:07:25Z</time>
      </trkpt>
      <trkpt lat="44.07015" lon="7.11998">
        <ele>857.63</ele>
        <time>2019-08-21T12:09:08Z</time>
      </trkpt>
      <trkpt lat="44.0701" lon="7.1211">
        <ele>864.36</ele>
        <time>2019-08-21T12:11:27Z</time>
      </trkpt>
      <trkpt lat="44.07011" lon="7.12241">
        <ele>871.57</ele>
        <time>2019-08-21T12:14:04Z</time>
      </trkpt>
      <trkpt lat="44.06977" lon="7.12386">
        <ele>918.68</ele>
        <time>2019-08-21T12:19:14Z</time>
      </trkpt>
      <trkpt lat="44.07011" lon="7.12501">
        <ele>902.33</ele>
        <time>2019-08-21T12:21:27Z</time>
      </trkpt>
      <trkpt lat="44.06987" lon="7.12616">
        <ele>911.95</ele>
        <time>2019-08-21T12:24:16Z</time>
      </trkpt>
      <trkpt lat="44.06932" lon="7.12706">
        <ele>922.52</ele>
        <time>2019-08-21T12:26:11Z</time>
      </trkpt>
      <trkpt lat="44.06948" lon="7.12823">
        <ele>931.65</ele>
        <time>2019-08-21T12:28:08Z</time>
      </trkpt>
      <trkpt lat="44.06926" lon="7.12935">
        <ele>943.67</ele>
        <time>2019-08-21T12:30:11Z</time>
      </trkpt>
      <trkpt lat="44.0685" lon="7.12969">
        <ele>951.36</ele>
        <time>2019-08-21T12:32:27Z</time>
      </trkpt>
      <trkpt lat="44.06789" lon="7.13059">
        <ele>959.53</ele>
        <time>2019-08-21T12:34:18Z</time>
      </trkpt>
      <trkpt lat="44.06752" lon="7.13149">
        <ele>969.15</ele>
        <time>2019-08-21T12:36:13Z</time>
      </trkpt>
      <trkpt lat="44.06665" lon="7.13154">
        <ele>977.8</ele>
        <time>2019-08-21T12:38:03Z</time>
      </trkpt>
      <trkpt lat="44.06594" lon="7.13078">
        <ele>985.49</ele>
        <time>2019-08-21T12:40:06Z</time>
      </trkpt>
      <trkpt lat="44.06508" lon="7.13028">
        <ele>992.22</ele>
        <time>2019-08-21T12:42:05Z</time>
      </trkpt>
      <trkpt lat="44.06423" lon="7.13057">
        <ele>1002.31</ele>
        <time>2019-08-21T12:44:14Z</time>
      </trkpt>
      <trkpt lat="44.06344" lon="7.13075">
        <ele>1010.96</ele>
        <time>2019-08-21T12:47:06Z</time>
      </trkpt>
      <trkpt lat="44.06387" lon="7.13161">
        <ele>1009.04</ele>
        <time>2019-08-21T12:49:24Z</time>
      </trkpt>
      <trkpt lat="44.0641" lon="7.13272">
        <ele>1006.64</ele>
        <time>2019-08-21T13:06:03Z</time>
      </trkpt>
      <trkpt lat="44.06453" lon="7.13375">
        <ele>985.97</ele>
        <time>2019-08-21T13:08:23Z</time>
      </trkpt>
      <trkpt lat="44.06482" lon="7.1349">
        <ele>972.03</ele>
        <time>2019-08-21T13:10:25Z</time>
      </trkpt>
      <trkpt lat="44.06508" lon="7.13602">
        <ele>964.34</ele>
        <time>2019-08-21T13:12:12Z</time>
      </trkpt>
      <trkpt lat="44.06584" lon="7.13668">
        <ele>953.77</ele>
        <time>2019-08-21T13:13:54Z</time>
      </trkpt>
      <trkpt lat="44.06648" lon="7.13757">
        <ele>941.75</ele>
        <time>2019-08-21T13:15:34Z</time>
      </trkpt>
      <trkpt lat="44.06716" lon="7.13823">
        <ele>933.58</ele>
        <time>2019-08-21T13:17:14Z</time>
      </trkpt>
      <trkpt lat="44.06698" lon="7.1394">
        <ele>930.21</ele>
        <time>2019-08-21T13:18:48Z</time>
      </trkpt>
      <trkpt lat="44.06711" lon="7.14056">
        <ele>927.81</ele>
        <time>2019-08-21T13:20:31Z</time>
      </trkpt>
      <trkpt lat="44.06709" lon="7.14169">
        <ele>916.75</ele>
        <time>2019-08-21T13:22:17Z</time>
      </trkpt>
      <trkpt lat="44.06738" lon="7.14263">
        <ele>899.93</ele>
        <time>2019-08-21T13:24:32Z</time>
      </trkpt>
      <trkpt lat="44.06796" lon="7.14356">
        <ele>887.91</ele>
        <time>2019-08-21T13:26:18Z</time>
      </trkpt>
      <trkpt lat="44.06744" lon="7.14438">
        <ele>878.3</ele>
        <time>2019-08-21T13:27:54Z</time>
      </trkpt>
      <trkpt lat="44.06726" lon="7.14481">
        <ele>857.63</ele>
        <time>2019-08-21T13:30:20Z</time>
      </trkpt>
      <trkpt lat="44.06809" lon="7.14492">
        <ele>845.14</ele>
        <time>2019-08-21T13:32:10Z</time>
      </trkpt>
      <trkpt lat="44.06817" lon="7.1455">
        <ele>841.29</ele>
        <time>2019-08-21T13:34:04Z</time>
      </trkpt>
      <trkpt lat="44.06803" lon="7.14655">
        <ele>836.96</ele>
        <time>2019-08-21T13:35:33Z</time>
      </trkpt>
      <trkpt lat="44.06828" lon="7.14756">
        <ele>831.68</ele>
        <time>2019-08-21T13:36:53Z</time>
      </trkpt>
      <trkpt lat="44.06865" lon="7.14854">
        <ele>833.12</ele>
        <time>2019-08-21T13:38:30Z</time>
      </trkpt>
      <trkpt lat="44.06887" lon="7.1495">
        <ele>826.87</ele>
        <time>2019-08-21T13:39:59Z</time>
      </trkpt>
      <trkpt lat="44.069" lon="7.15048">
        <ele>827.83</ele>
        <time>2019-08-21T13:41:41Z</time>
      </trkpt>
      <trkpt lat="44.06955" lon="7.15135">
        <ele>818.22</ele>
        <time>2019-08-21T13:43:24Z</time>
      </trkpt>
      <trkpt lat="44.06942" lon="7.15224">
        <ele>826.39</ele>
        <time>2019-08-21T13:45:35Z</time>
      </trkpt>
      <trkpt lat="44.06943" lon="7.15267">
        <ele>844.18</ele>
        <time>2019-08-21T13:48:52Z</time>
      </trkpt>
      <trkpt lat="44.06982" lon="7.15355">
        <ele>864.36</ele>
        <time>2019-08-21T13:52:28Z</time>
      </trkpt>
      <trkpt lat="44.07013" lon="7.1545">
        <ele>881.67</ele>
        <time>2019-08-21T13:55:04Z</time>
      </trkpt>
      <trkpt lat="44.06964" lon="7.15561">
        <ele>894.64</ele>
        <time>2019-08-21T13:57:36Z</time>
      </trkpt>
      <trkpt lat="44.06936" lon="7.15671">
        <ele>912.43</ele>
        <time>2019-08-21T14:00:16Z</time>
      </trkpt>
      <trkpt lat="44.06926" lon="7.15784">
        <ele>931.65</ele>
        <time>2019-08-21T14:03:11Z</time>
      </trkpt>
      <trkpt lat="44.06915" lon="7.15908">
        <ele>944.63</ele>
        <time>2019-08-21T14:05:40Z</time>
      </trkpt>
      <trkpt lat="44.06935" lon="7.16044">
        <ele>956.17</ele>
        <time>2019-08-21T14:08:00Z</time>
      </trkpt>
      <trkpt lat="44.06929" lon="7.16172">
        <ele>964.34</ele>
        <time>2019-08-21T14:10:07Z</time>
      </trkpt>
      <trkpt lat="44.06906" lon="7.16295">
        <ele>972.99</ele>
        <time>2019-08-21T14:12:04Z</time>
      </trkpt>
      <trkpt lat="44.069" lon="7.1642">
        <ele>979.72</ele>
        <time>2019-08-21T14:14:04Z</time>
      </trkpt>
      <trkpt lat="44.06916" lon="7.1655">
        <ele>988.85</ele>
        <time>2019-08-21T14:16:06Z</time>
      </trkpt>
      <trkpt lat="44.06902" lon="7.16663">
        <ele>994.62</ele>
        <time>2019-08-21T14:17:53Z</time>
      </trkpt>
      <trkpt lat="44.06877" lon="7.1678">
        <ele>1001.83</ele>
        <time>2019-08-21T14:19:51Z</time>
      </trkpt>
      <trkpt lat="44.06885" lon="7.169">
        <ele>1011.44</ele>
        <time>2019-08-21T14:21:46Z</time>
      </trkpt>
      <trkpt lat="44.06897" lon="7.17028">
        <ele>1022.02</ele>
        <time>2019-08-21T14:24:02Z</time>
      </trkpt>
      <trkpt lat="44.069" lon="7.17124">
        <ele>1034.04</ele>
        <time>2019-08-21T14:29:11Z</time>
      </trkpt>
      <trkpt lat="44.06927" lon="7.1723">
        <ele>1050.38</ele>
        <time>2019-08-21T14:31:39Z</time>
      </trkpt>
      <trkpt lat="44.06975" lon="7.17334">
        <ele>1067.68</ele>
        <time>2019-08-21T14:34:13Z</time>
      </trkpt>
      <trkpt lat="44.06926" lon="7.17411">
        <ele>1074.41</ele>
        <time>2019-08-21T14:36:08Z</time>
      </trkpt>
      <trkpt lat="44.06887" lon="7.17524">
        <ele>1089.31</ele>
        <time>2019-08-21T14:38:34Z</time>
      </trkpt>
      <trkpt lat="44.06823" lon="7.17612">
        <ele>1102.29</ele>
        <time>2019-08-21T14:40:47Z</time>
      </trkpt>
      <trkpt lat="44.06842" lon="7.17663">
        <ele>1113.34</ele>
        <time>2019-08-21T14:42:53Z</time>
      </trkpt>
      <trkpt lat="44.06803" lon="7.17741">
        <ele>1113.82</ele>
        <time>2019-08-21T14:45:14Z</time>
      </trkpt>
      <trkpt lat="44.06767" lon="7.17859">
        <ele>1112.38</ele>
        <time>2019-08-21T14:46:37Z</time>
      </trkpt>
      <trkpt lat="44.06718" lon="7.17965">
        <ele>1111.9</ele>
        <time>2019-08-21T14:48:09Z</time>
      </trkpt>
      <trkpt lat="44.06687" lon="7.18089">
        <ele>1122.48</ele>
        <time>2019-08-21T14:49:58Z</time>
      </trkpt>
      <trkpt lat="44.06624" lon="7.18181">
        <ele>1128.24</ele>
        <time>2019-08-21T14:51:37Z</time>
      </trkpt>
      <trkpt lat="44.06585" lon="7.18293">
        <ele>1139.78</ele>
        <time>2019-08-21T14:53:40Z</time>
      </trkpt>
      <trkpt lat="44.06557" lon="7.18417">
        <ele>1150.84</ele>
        <time>2019-08-21T14:55:36Z</time>
      </trkpt>
      <trkpt lat="44.06527" lon="7.18533">
        <ele>1160.93</ele>
        <time>2019-08-21T14:57:36Z</time>
      </trkpt>
      <trkpt lat="44.06501" lon="7.18649">
        <ele>1169.58</ele>
        <time>2019-08-21T15:00:23Z</time>
      </trkpt>
      <trkpt lat="44.06508" lon="7.18774">
        <ele>1182.08</ele>
        <time>2019-08-21T15:02:35Z</time>
      </trkpt>
      <trkpt lat="44.0653" lon="7.18893">
        <ele>1192.17</ele>
        <time>2019-08-21T15:04:30Z</time>
      </trkpt>
      <trkpt lat="44.06524" lon="7.19014">
        <ele>1202.75</ele>
        <time>2019-08-21T15:06:51Z</time>
      </trkpt>
      <trkpt lat="44.06547" lon="7.19138">
        <ele>1214.76</ele>
        <time>2019-08-21T15:08:52Z</time>
      </trkpt>
      <trkpt lat="44.06567" lon="7.1926">
        <ele>1224.38</ele>
        <time>2019-08-21T15:10:47Z</time>
      </trkpt>
      <trkpt lat="44.06546" lon="7.19386">
        <ele>1232.07</ele>
        <time>2019-08-21T15:12:25Z</time>
      </trkpt>
      <trkpt lat="44.0655" lon="7.19508">
        <ele>1239.28</ele>
        <time>2019-08-21T15:13:57Z</time>
      </trkpt>
      <trkpt lat="44.06559" lon="7.19634">
        <ele>1247.45</ele>
        <time>2019-08-21T15:15:33Z</time>
      </trkpt>
      <trkpt lat="44.0658" lon="7.19756">
        <ele>1253.22</ele>
        <time>2019-08-21T15:17:14Z</time>
      </trkpt>
      <trkpt lat="44.06621" lon="7.19874">
        <ele>1260.91</ele>
        <time>2019-08-21T15:18:45Z</time>
      </trkpt>
      <trkpt lat="44.06657" lon="7.1999">
        <ele>1268.12</ele>
        <time>2019-08-21T15:20:15Z</time>
      </trkpt>
      <trkpt lat="44.0667" lon="7.20113">
        <ele>1273.4</ele>
        <time>2019-08-21T15:21:41Z</time>
      </trkpt>
      <trkpt lat="44.06648" lon="7.20228">
        <ele>1279.17</ele>
        <time>2019-08-21T15:23:18Z</time>
      </trkpt>
      <trkpt lat="44.0665" lon="7.20278">
        <ele>1282.54</ele>
        <time>2019-08-21T15:25:47Z</time>
      </trkpt>
      <trkpt lat="44.06627" lon="7.20393">
        <ele>1285.42</ele>
        <time>2019-08-21T15:27:10Z</time>
      </trkpt>
    </trkseg>
  </trk>
</gpx>